Banyo Airport


Codes: FKAB/
Name: Banyo Airport
City: Banyo
Country: Cameroon
Elevation: 3642 ft.

Photos at Banyo Airport


   Photos courtesy of SpottingLog. You can add your own sightings and photos by signing up for a free trial today.



No photos found.

Weather at Banyo Airport


Time (UTC)DescriptionTempratureWindCloud coverageVisibilityPressureHumidity
21-Feb-2024 03:00Few Clouds21°C2 mph, NW19%10000m1010hPa25%
21-Feb-2024 06:00Few Clouds21°C2 mph, NW22%10000m1011hPa24%
21-Feb-2024 09:00Broken Clouds28°C4 mph, NE55%10000m1011hPa17%
21-Feb-2024 12:00Broken Clouds35°C4 mph, E58%10000m1007hPa14%
21-Feb-2024 15:00Broken Clouds35°C7 mph, SE72%10000m1004hPa15%
21-Feb-2024 18:00Broken Clouds26°C2 mph, S79%10000m1008hPa42%
21-Feb-2024 21:00Broken Clouds25°C4 mph, NW79%10000m1009hPa43%
22-Feb-2024 00:00Broken Clouds26°C4 mph, NW82%10000m1008hPa23%
22-Feb-2024 03:00Overcast Clouds23°C2 mph, NW93%10000m1008hPa22%
22-Feb-2024 06:00Overcast Clouds22°C2 mph, NW90%10000m1010hPa24%
22-Feb-2024 09:00Broken Clouds32°C4 mph, N77%10000m1010hPa13%
22-Feb-2024 12:00Broken Clouds35°C7 mph, N60%10000m1006hPa13%
22-Feb-2024 15:00Overcast Clouds34°C2 mph, N97%10000m1004hPa14%
22-Feb-2024 18:00Broken Clouds26°C9 mph, NW59%10000m1007hPa38%
22-Feb-2024 21:00Scattered Clouds24°C7 mph, NW35%10000m1010hPa59%
23-Feb-2024 00:00Scattered Clouds22°C4 mph, NW35%10000m1010hPa61%
23-Feb-2024 03:00Overcast Clouds20°C4 mph, NW94%10000m1011hPa70%
23-Feb-2024 06:00Overcast Clouds20°C4 mph, NW95%10000m1012hPa65%
23-Feb-2024 09:00Broken Clouds30°C4 mph, NE67%10000m1012hPa21%
23-Feb-2024 12:00Broken Clouds33°C4 mph, NE83%10000m1009hPa15%
23-Feb-2024 15:00Overcast Clouds33°C4 mph, NE91%10000m1006hPa15%
23-Feb-2024 18:00Overcast Clouds26°C4 mph, NE94%10000m1010hPa23%
23-Feb-2024 21:00Overcast Clouds23°C4 mph, NW99%10000m1012hPa28%
24-Feb-2024 00:00Overcast Clouds22°C4 mph, NW99%10000m1012hPa32%
24-Feb-2024 03:00Overcast Clouds21°C4 mph, NW100%10000m1011hPa35%
24-Feb-2024 06:00Overcast Clouds20°C2 mph, NW100%10000m1014hPa39%
24-Feb-2024 09:00Overcast Clouds30°C2 mph, NE100%10000m1013hPa23%
24-Feb-2024 12:00Broken Clouds35°C4 mph, E80%10000m1009hPa16%
24-Feb-2024 15:00Scattered Clouds35°C7 mph, E50%10000m1006hPa16%
24-Feb-2024 18:00Broken Clouds28°C2 mph, N61%10000m1009hPa24%
24-Feb-2024 21:00Broken Clouds24°C4 mph, NW58%10000m1012hPa29%
25-Feb-2024 00:00Broken Clouds23°C2 mph, NW78%10000m1012hPa29%
25-Feb-2024 03:00Overcast Clouds24°C2 mph, W94%10000m1011hPa28%
25-Feb-2024 06:00Overcast Clouds22°C2 mph, NW93%10000m1014hPa34%
25-Feb-2024 09:00Overcast Clouds32°C2 mph, SE95%10000m1014hPa19%
25-Feb-2024 12:00Broken Clouds35°C7 mph, E80%10000m1010hPa15%
25-Feb-2024 15:00Scattered Clouds36°C7 mph, E30%10000m1006hPa14%
25-Feb-2024 18:00Broken Clouds29°C4 mph, NW64%10000m1009hPa21%
25-Feb-2024 21:00Overcast Clouds25°C4 mph, NW100%10000m1012hPa26%
26-Feb-2024 00:00Overcast Clouds25°C2 mph, S95%10000m1011hPa29%